createdAt,value
2023-03-05T00:01:56.949Z,102389.03
2023-03-05T00:04:23.527Z,102390.78
2023-03-05T00:06:49.951Z,102389.84
2023-03-05T00:09:16.887Z,102380.53
2023-03-05T00:11:43.424Z,102378.78
2023-03-05T00:14:10.766Z,102374.56
2023-03-05T00:16:37.258Z,102370.31
2023-03-05T00:19:03.929Z,102369.44
2023-03-05T00:21:36.256Z,102366.06
2023-03-05T00:24:05.714Z,102365.25
2023-03-05T00:26:34.773Z,102366.06
2023-03-05T00:29:01.306Z,102361.81
2023-03-05T00:31:30.754Z,102357.53
2023-03-05T00:34:02.835Z,102359.16
2023-03-05T00:36:29.819Z,102361.66
2023-03-05T00:38:56.533Z,102360.72
2023-03-05T00:41:23.316Z,102357.28
2023-03-05T00:43:49.858Z,102358.06
2023-03-05T00:46:17.198Z,102358.00
2023-03-05T00:48:43.775Z,102351.22
2023-03-05T00:51:10.319Z,102351.97
2023-03-05T00:53:36.680Z,102347.75
2023-03-05T00:56:03.250Z,102353.66
2023-03-05T00:58:30.752Z,102345.16
2023-03-05T01:00:59.346Z,102346.78
2023-03-05T01:03:26.403Z,102342.59
2023-03-05T01:05:52.879Z,102340.81
2023-03-05T01:08:19.765Z,102342.44
2023-03-05T01:10:46.172Z,102339.88
2023-03-05T01:13:12.770Z,102340.66
2023-03-05T01:15:39.169Z,102330.50
2023-03-05T01:18:05.942Z,102327.94
2023-03-05T01:20:32.756Z,102331.34
2023-03-05T01:22:59.404Z,102320.28
2023-03-05T01:25:25.839Z,102316.03
2023-03-05T01:27:52.733Z,102316.88
2023-03-05T01:30:19.654Z,102315.22
2023-03-05T01:32:46.388Z,102306.75
2023-03-05T01:35:19.697Z,102302.53
2023-03-05T01:37:46.582Z,102303.41
2023-03-05T01:40:16.594Z,102299.13
2023-03-05T01:42:48.070Z,102297.41
2023-03-05T01:45:18.184Z,102281.31
2023-03-05T01:47:45.495Z,102290.63
2023-03-05T01:50:20.099Z,102284.63
2023-03-05T01:52:52.277Z,102272.75
2023-03-05T01:55:22.444Z,102272.81
2023-03-05T01:58:06.404Z,102270.28
2023-03-05T02:00:39.484Z,102265.22
2023-03-05T02:03:09.634Z,102266.03
2023-03-05T02:05:38.063Z,102257.50
2023-03-05T02:08:07.828Z,102248.13
2023-03-05T02:10:37.320Z,102254.06
2023-03-05T02:13:07.543Z,102243.03
2023-03-05T02:15:34.851Z,102238.78
2023-03-05T02:18:01.664Z,102238.75
2023-03-05T02:20:30.824Z,102241.28
2023-03-05T02:22:57.640Z,102231.97
2023-03-05T02:25:27.732Z,102224.38
2023-03-05T02:28:08.520Z,102221.00
2023-03-05T02:30:35.592Z,102220.97
2023-03-05T02:33:02.416Z,102219.28
2023-03-05T02:35:28.856Z,102214.16
2023-03-05T02:37:55.350Z,102212.41
2023-03-05T02:40:21.788Z,102209.00
2023-03-05T02:42:49.010Z,102210.66
2023-03-05T02:45:16.057Z,102208.13
2023-03-05T02:47:43.018Z,102201.38
2023-03-05T02:50:10.967Z,102210.66
2023-03-05T02:52:37.435Z,102196.28
2023-03-05T02:55:04.830Z,102197.09
2023-03-05T02:57:31.254Z,102191.22
2023-03-05T02:59:57.717Z,102189.53
2023-03-05T03:02:24.198Z,102185.25
2023-03-05T03:04:50.640Z,102180.16
2023-03-05T03:07:17.229Z,102175.09
2023-03-05T03:09:43.647Z,102170.00
2023-03-05T03:12:11.198Z,102162.38
2023-03-05T03:14:41.105Z,102159.84
2023-03-05T03:17:18.181Z,102165.75
2023-03-05T03:19:45.696Z,102158.94
2023-03-05T03:22:14.090Z,102159.75
2023-03-05T03:24:41.739Z,102152.16
2023-03-05T03:27:08.303Z,102152.13
2023-03-05T03:29:35.295Z,102144.47
2023-03-05T03:32:01.823Z,102153.81
2023-03-05T03:34:28.303Z,102152.09
2023-03-05T03:36:54.890Z,102151.22
2023-03-05T03:39:22.288Z,102147.81
2023-03-05T03:41:51.572Z,102140.19
2023-03-05T03:44:19.615Z,102138.44
2023-03-05T03:46:47.936Z,102129.97
2023-03-05T03:49:18.074Z,102128.28
2023-03-05T03:51:44.871Z,102118.13
2023-03-05T03:54:11.473Z,102115.59
2023-03-05T03:56:37.857Z,102117.31
2023-03-05T03:59:04.242Z,102122.38
2023-03-05T04:01:30.722Z,102113.94
2023-03-05T04:03:57.224Z,102115.66
2023-03-05T04:06:23.814Z,102121.56
2023-03-05T04:08:50.494Z,102120.72
2023-03-05T04:11:19.344Z,102115.66
2023-03-05T04:13:46.884Z,102109.69
2023-03-05T04:16:14.903Z,102107.13
2023-03-05T04:18:42.263Z,102103.75
2023-03-05T04:21:08.739Z,102105.41
2023-03-05T04:23:35.559Z,102103.72
2023-03-05T04:26:02.234Z,102099.47
2023-03-05T04:28:28.856Z,102097.75
2023-03-05T04:30:55.504Z,102099.44
2023-03-05T04:33:22.051Z,102096.13
2023-03-05T04:35:48.588Z,102091.03
2023-03-05T04:38:15.187Z,102092.72
2023-03-05T04:40:41.668Z,102087.63
2023-03-05T04:43:08.380Z,102083.44
2023-03-05T04:45:34.922Z,102085.91
2023-03-05T04:48:01.680Z,102076.59
2023-03-05T04:50:28.098Z,102074.84
2023-03-05T04:52:54.617Z,102068.94
2023-03-05T04:55:21.013Z,102068.06
2023-03-05T04:57:47.477Z,102071.44
2023-03-05T05:00:16.886Z,102060.38
2023-03-05T05:02:45.335Z,102074.78
2023-03-05T05:05:14.923Z,102064.59
2023-03-05T05:07:41.541Z,102062.03
2023-03-05T05:10:09.015Z,102072.22
2023-03-05T05:12:35.603Z,102071.38
2023-03-05T05:15:03.227Z,102064.56
2023-03-05T05:17:32.853Z,102056.94
2023-03-05T05:20:00.273Z,102051.84
2023-03-05T05:22:28.862Z,102051.00
2023-03-05T05:24:55.889Z,102045.09
2023-03-05T05:27:22.738Z,102045.91
2023-03-05T05:29:52.886Z,102043.38
2023-03-05T05:32:22.247Z,102041.66
2023-03-05T05:34:48.955Z,102035.69
2023-03-05T05:37:15.346Z,102038.19
2023-03-05T05:39:41.718Z,102033.09
2023-03-05T05:42:08.091Z,102029.69
2023-03-05T05:44:34.911Z,102040.66
2023-03-05T05:47:01.802Z,102033.03
2023-03-05T05:49:28.320Z,102037.25
2023-03-05T05:51:54.830Z,102029.63
2023-03-05T05:54:21.407Z,102029.63
2023-03-05T05:56:47.864Z,102027.91
2023-03-05T05:59:14.338Z,102023.72
2023-03-05T06:01:40.777Z,102027.13
2023-03-05T06:04:07.412Z,102026.28
2023-03-05T06:06:34.995Z,102014.50
2023-03-05T06:09:01.659Z,102024.66
2023-03-05T06:11:28.116Z,102032.28
2023-03-05T06:13:54.759Z,102024.72
2023-03-05T06:16:24.013Z,102019.63
2023-03-05T06:18:51.921Z,102016.25
2023-03-05T06:21:20.299Z,102021.34
2023-03-05T06:23:47.972Z,102021.34
2023-03-05T06:26:17.836Z,102014.59
2023-03-05T06:28:44.389Z,102017.97
2023-03-05T06:31:21.854Z,102013.75
2023-03-05T06:33:49.370Z,102011.22
2023-03-05T06:36:18.124Z,102014.63
2023-03-05T06:38:44.853Z,102010.41
2023-03-05T06:41:14.356Z,102012.13
2023-03-05T06:43:43.419Z,102020.63
2023-03-05T06:46:14.226Z,102016.38
2023-03-05T06:48:40.875Z,102017.19
2023-03-05T06:51:17.547Z,102015.47
2023-03-05T06:53:45.014Z,102022.25
2023-03-05T06:56:11.616Z,102017.97
2023-03-05T06:58:38.032Z,102009.56
2023-03-05T07:01:06.484Z,102017.97
2023-03-05T07:03:35.077Z,102011.28
2023-03-05T07:06:13.418Z,102011.31
2023-03-05T07:08:40.113Z,102008.81
2023-03-05T07:11:11.489Z,102008.88
2023-03-05T07:13:37.985Z,102012.25
2023-03-05T07:16:10.294Z,102006.38
2023-03-05T07:18:36.897Z,102004.75
2023-03-05T07:21:05.414Z,101998.00
2023-03-05T07:23:32.204Z,102015.81
2023-03-05T07:26:01.958Z,102007.38
2023-03-05T07:28:28.357Z,102003.19
2023-03-05T07:30:59.383Z,102010.00
2023-03-05T07:33:26.704Z,102007.50
2023-03-05T07:35:53.338Z,102007.53
2023-03-05T07:38:19.876Z,102005.09
2023-03-05T07:40:46.687Z,102011.91
2023-03-05T07:43:13.382Z,102000.94
2023-03-05T07:45:41.132Z,102004.38
2023-03-05T07:48:08.487Z,102003.56
2023-03-05T07:50:34.864Z,102003.56
2023-03-05T07:53:01.257Z,102007.88
2023-03-05T07:55:27.722Z,102002.03
2023-03-05T07:57:54.142Z,102002.19
2023-03-05T08:00:20.874Z,101992.94
2023-03-05T08:02:47.959Z,101998.19
2023-03-05T08:05:14.645Z,101994.03
2023-03-05T08:07:41.083Z,101991.66
2023-03-05T08:10:08.637Z,101986.56
2023-03-05T08:12:35.435Z,101986.59
2023-03-05T08:15:01.930Z,101994.22
2023-03-05T08:17:28.334Z,101980.66
2023-03-05T08:19:58.240Z,101984.81
2023-03-05T08:22:24.634Z,101979.78
2023-03-05T08:24:52.240Z,101967.97
2023-03-05T08:27:18.836Z,101978.22
2023-03-05T08:29:45.230Z,101977.47
2023-03-05T08:32:12.659Z,101978.47
2023-03-05T08:34:39.037Z,101974.38
2023-03-05T08:37:06.099Z,101963.41
2023-03-05T08:39:32.561Z,101967.69
2023-03-05T08:41:58.936Z,101971.09
2023-03-05T08:44:25.359Z,101960.13
2023-03-05T08:46:51.839Z,101958.38
2023-03-05T08:49:18.250Z,101956.66
2023-03-05T08:51:44.893Z,101952.44
2023-03-05T08:54:11.343Z,101952.47
2023-03-05T08:56:38.024Z,101946.53
2023-03-05T08:59:05.276Z,101933.84
2023-03-05T09:01:32.477Z,101937.31
2023-03-05T09:03:59.790Z,101937.34
2023-03-05T09:06:27.120Z,101931.44
2023-03-05T09:08:54.166Z,101935.69
2023-03-05T09:11:21.126Z,101938.22
2023-03-05T09:13:47.575Z,101943.31
2023-03-05T09:16:16.346Z,101932.31
2023-03-05T09:18:43.746Z,101939.13
2023-03-05T09:21:13.916Z,101940.00
2023-03-05T09:23:40.986Z,101935.75
2023-03-05T09:26:09.829Z,101937.47
2023-03-05T09:28:36.401Z,101937.47
2023-03-05T09:31:07.673Z,101931.53
2023-03-05T09:33:35.031Z,101930.69
2023-03-05T09:36:02.048Z,101930.69
2023-03-05T09:38:29.486Z,101922.22
2023-03-05T09:41:03.783Z,101919.69
2023-03-05T09:43:54.948Z,101923.97
2023-03-05T09:46:43.887Z,101926.53
2023-03-05T09:49:22.558Z,101924.03
2023-03-05T09:51:57.878Z,101928.28
2023-03-05T09:54:54.989Z,101921.50
2023-03-05T09:57:27.267Z,101924.94
2023-03-05T10:00:01.862Z,101915.56
2023-03-05T10:02:33.954Z,101911.31
2023-03-05T10:05:10.933Z,101908.81
2023-03-05T10:07:41.703Z,101910.50
2023-03-05T10:10:17.650Z,101906.28
2023-03-05T10:12:59.925Z,101902.88
2023-03-05T10:15:52.118Z,101897.78
2023-03-05T10:18:33.422Z,101902.03
2023-03-05T10:21:04.030Z,101890.13
2023-03-05T10:23:58.733Z,101894.38
2023-03-05T10:26:57.542Z,101896.06
2023-03-05T10:29:39.799Z,101892.69
2023-03-05T10:32:44.610Z,101889.28
2023-03-05T10:35:23.641Z,101880.78
2023-03-05T10:38:05.025Z,101881.63
2023-03-05T10:40:52.547Z,101877.38
2023-03-05T10:43:21.938Z,101868.88
2023-03-05T10:45:53.931Z,101860.38
2023-03-05T10:48:40.091Z,101869.72
2023-03-05T10:51:15.525Z,101856.94
2023-03-05T10:54:09.838Z,101856.06
2023-03-05T10:56:36.980Z,101852.63
2023-03-05T10:59:03.504Z,101852.63
2023-03-05T11:01:31.847Z,101844.84
2023-03-05T11:04:26.166Z,101843.09
2023-03-05T11:06:52.863Z,101837.13
2023-03-05T11:09:29.082Z,101834.50
2023-03-05T11:12:06.215Z,101836.09
2023-03-05T11:14:33.649Z,101826.75
2023-03-05T11:17:01.981Z,101827.72
2023-03-05T11:19:33.604Z,101826.06
2023-03-05T11:22:16.649Z,101822.63
2023-03-05T11:24:46.662Z,101808.94
2023-03-05T11:27:30.215Z,101804.63
2023-03-05T11:29:56.635Z,101792.56
2023-03-05T11:32:26.290Z,101802.59
2023-03-05T11:34:54.631Z,101787.31
2023-03-05T11:37:30.387Z,101795.09
2023-03-05T11:40:21.044Z,101791.66
2023-03-05T11:42:56.298Z,101783.84
2023-03-05T11:45:24.744Z,101789.78
2023-03-05T11:47:53.627Z,101780.53
2023-03-05T11:50:30.683Z,101775.38
2023-03-05T11:53:18.851Z,101774.50
2023-03-05T11:55:48.994Z,101764.19
2023-03-05T11:58:24.992Z,101755.59
2023-03-05T12:00:52.131Z,101760.75
2023-03-05T12:03:22.274Z,101758.19
2023-03-05T12:05:52.580Z,101756.44
2023-03-05T12:08:25.552Z,101747.91
2023-03-05T12:10:53.176Z,101738.47
2023-03-05T12:13:35.049Z,101727.47
2023-03-05T12:16:10.457Z,101735.91
2023-03-05T12:18:52.594Z,101732.47
2023-03-05T12:21:26.102Z,101721.47
2023-03-05T12:23:58.948Z,101719.84
2023-03-05T12:26:53.328Z,101713.97
2023-03-05T12:29:41.526Z,101718.34
2023-03-05T12:32:23.273Z,101709.00
2023-03-05T12:34:58.153Z,101700.59
2023-03-05T12:37:24.585Z,101695.53
2023-03-05T12:40:04.969Z,101689.53
2023-03-05T12:42:31.511Z,101689.53
2023-03-05T12:45:11.622Z,101679.28
2023-03-05T12:48:02.119Z,101686.97
2023-03-05T12:50:28.500Z,101676.66
2023-03-05T12:52:55.951Z,101676.59
2023-03-05T12:55:48.312Z,101667.22
2023-03-05T12:58:42.326Z,101662.19
2023-03-05T13:01:11.833Z,101660.56
2023-03-05T13:03:50.535Z,101661.34
2023-03-05T13:06:34.129Z,101646.75
2023-03-05T13:09:18.750Z,101644.06
2023-03-05T13:11:49.929Z,101633.75
2023-03-05T13:14:32.436Z,101637.94
2023-03-05T13:17:00.038Z,101634.47
2023-03-05T13:19:27.045Z,101625.25
2023-03-05T13:22:09.418Z,101626.13
2023-03-05T13:24:35.843Z,101624.19
2023-03-05T13:27:02.343Z,101622.47
2023-03-05T13:29:30.649Z,101613.97
2023-03-05T13:32:04.308Z,101611.44
2023-03-05T13:34:46.260Z,101602.00
2023-03-05T13:37:38.095Z,101604.63
2023-03-05T13:40:25.151Z,101597.75
2023-03-05T13:42:53.339Z,101591.78
2023-03-05T13:45:27.017Z,101590.19
2023-03-05T13:47:57.304Z,101585.03
2023-03-05T13:50:27.730Z,101588.41
2023-03-05T13:52:54.632Z,101576.50
2023-03-05T13:55:21.326Z,101576.50
2023-03-05T13:57:55.786Z,101575.44
2023-03-05T14:00:38.968Z,101579.69
2023-03-05T14:03:22.188Z,101570.59
2023-03-05T14:05:50.023Z,101571.75
2023-03-05T14:08:34.612Z,101572.75
2023-03-05T14:11:13.482Z,101566.84
2023-03-05T14:13:40.151Z,101556.69
2023-03-05T14:16:07.637Z,101562.72
2023-03-05T14:18:35.048Z,101561.03
2023-03-05T14:21:09.359Z,101557.53
2023-03-05T14:23:46.152Z,101543.06
2023-03-05T14:26:26.431Z,101543.81
2023-03-05T14:29:17.544Z,101537.75
2023-03-05T14:31:54.548Z,101538.50
2023-03-05T14:34:27.175Z,101533.34
2023-03-05T14:36:55.406Z,101527.34
2023-03-05T14:39:31.336Z,101527.47
2023-03-05T14:42:25.510Z,101527.66
2023-03-05T14:44:51.888Z,101518.34
2023-03-05T14:47:18.380Z,101515.13
2023-03-05T14:49:44.737Z,101516.09
2023-03-05T14:52:19.665Z,101522.06
2023-03-05T14:54:46.249Z,101508.53
2023-03-05T14:57:18.576Z,101504.28
2023-03-05T14:59:45.227Z,101500.94
2023-03-05T15:02:21.798Z,101491.66
2023-03-05T15:04:48.420Z,101494.22
2023-03-05T15:07:32.881Z,101496.78
2023-03-05T15:10:02.038Z,101499.31
2023-03-05T15:12:28.614Z,101491.63
2023-03-05T15:14:56.389Z,101482.34
2023-03-05T15:17:30.406Z,101473.94
2023-03-05T15:19:56.821Z,101476.53
2023-03-05T15:22:23.208Z,101479.06
2023-03-05T15:24:49.577Z,101468.00
2023-03-05T15:27:16.019Z,101469.72
2023-03-05T15:29:42.457Z,101468.88
2023-03-05T15:32:09.420Z,101461.25
2023-03-05T15:34:36.071Z,101456.13
2023-03-05T15:37:03.491Z,101456.13
2023-03-05T15:39:29.995Z,101456.94
2023-03-05T15:41:57.236Z,101445.94
2023-03-05T15:44:23.702Z,101451.03
2023-03-05T15:46:50.100Z,101445.88
2023-03-05T15:49:16.779Z,101442.50
2023-03-05T15:51:43.360Z,101442.56
2023-03-05T15:54:09.808Z,101437.44
2023-03-05T15:56:36.314Z,101437.44
2023-03-05T15:59:02.848Z,101434.91
2023-03-05T16:01:29.287Z,101432.41
2023-03-05T16:03:55.736Z,101429.94
2023-03-05T16:06:23.885Z,101422.28
2023-03-05T16:08:54.388Z,101423.16
2023-03-05T16:11:21.774Z,101424.88
2023-03-05T16:13:50.403Z,101416.41
2023-03-05T16:16:17.798Z,101410.50
2023-03-05T16:18:47.390Z,101407.91
2023-03-05T16:21:14.450Z,101401.16
2023-03-05T16:23:40.819Z,101401.16
2023-03-05T16:26:08.976Z,101404.59
2023-03-05T16:28:35.374Z,101400.41
2023-03-05T16:31:02.321Z,101399.63
2023-03-05T16:33:28.778Z,101395.47
2023-03-05T16:36:20.179Z,101388.66
2023-03-05T16:38:49.185Z,101389.50
2023-03-05T16:41:16.778Z,101386.16
2023-03-05T16:43:44.561Z,101386.22
2023-03-05T16:46:12.420Z,101383.69
2023-03-05T16:48:39.131Z,101378.56
2023-03-05T16:51:06.951Z,101377.75
2023-03-05T16:53:33.493Z,101373.47
2023-03-05T16:56:04.016Z,101382.00
2023-03-05T16:58:31.590Z,101369.28
2023-03-05T17:00:58.085Z,101375.28
2023-03-05T17:03:24.671Z,101368.47
2023-03-05T17:05:51.216Z,101373.59
2023-03-05T17:08:17.864Z,101364.22
2023-03-05T17:10:44.452Z,101363.41
2023-03-05T17:13:10.933Z,101361.69
2023-03-05T17:15:37.403Z,101365.94
2023-03-05T17:18:04.070Z,101367.66
2023-03-05T17:20:30.457Z,101363.41
2023-03-05T17:22:56.904Z,101359.16
2023-03-05T17:25:23.328Z,101358.34
2023-03-05T17:27:49.706Z,101359.19
2023-03-05T17:30:16.414Z,101360.88
2023-03-05T17:32:42.943Z,101355.00
2023-03-05T17:35:17.859Z,101354.16
2023-03-05T17:37:44.282Z,101346.50
2023-03-05T17:40:13.549Z,101344.84
2023-03-05T17:42:39.951Z,101355.84
2023-03-05T17:45:07.064Z,101352.50
2023-03-05T17:47:36.462Z,101353.31
2023-03-05T17:50:04.073Z,101358.41
2023-03-05T17:52:31.154Z,101352.47
2023-03-05T17:54:58.422Z,101352.50
2023-03-05T17:57:26.095Z,101344.88
2023-03-05T17:59:52.762Z,101344.03
2023-03-05T18:02:19.154Z,101349.97
2023-03-05T18:04:47.844Z,101344.06
2023-03-05T18:07:14.483Z,101345.78
2023-03-05T18:09:40.863Z,101349.19
2023-03-05T18:12:07.296Z,101347.50
2023-03-05T18:14:33.758Z,101348.41
2023-03-05T18:17:00.326Z,101346.69
2023-03-05T18:19:26.834Z,101340.78
2023-03-05T18:21:53.320Z,101339.91
2023-03-05T18:24:19.768Z,101337.34
2023-03-05T18:26:46.462Z,101334.81
2023-03-05T18:29:13.090Z,101337.38
2023-03-05T18:31:39.478Z,101339.09
2023-03-05T18:34:05.880Z,101332.28
2023-03-05T18:36:32.871Z,101334.84
2023-03-05T18:38:59.292Z,101334.03
2023-03-05T18:41:27.949Z,101334.03
2023-03-05T18:43:54.889Z,101334.03
2023-03-05T18:46:21.394Z,101330.66
2023-03-05T18:48:48.176Z,101330.69
2023-03-05T18:51:17.516Z,101324.75
2023-03-05T18:53:44.284Z,101322.19
2023-03-05T18:56:10.869Z,101326.44
2023-03-05T18:58:37.811Z,101317.09
2023-03-05T19:01:04.864Z,101319.66
2023-03-05T19:03:31.345Z,101305.25
2023-03-05T19:05:57.748Z,101305.25
2023-03-05T19:08:24.296Z,101303.56
2023-03-05T19:10:53.716Z,101306.97
2023-03-05T19:13:35.846Z,101299.34
2023-03-05T19:16:26.517Z,101295.09
2023-03-05T19:19:19.986Z,101296.81
2023-03-05T19:21:49.435Z,101290.03
2023-03-05T19:24:16.837Z,101291.75
2023-03-05T19:26:43.779Z,101290.03
2023-03-05T19:29:10.304Z,101284.09
2023-03-05T19:31:37.328Z,101279.03
2023-03-05T19:34:04.199Z,101277.31
2023-03-05T19:36:32.317Z,101278.19
2023-03-05T19:38:58.830Z,101272.25
2023-03-05T19:41:26.190Z,101262.94
2023-03-05T19:43:52.777Z,101264.63
2023-03-05T19:46:19.684Z,101259.53
2023-03-05T19:48:46.518Z,101261.22
2023-03-05T19:51:16.981Z,101254.44
2023-03-05T19:53:43.729Z,101246.00
2023-03-05T19:56:10.773Z,101258.72
2023-03-05T19:58:37.648Z,101248.53
2023-03-05T20:01:26.768Z,101248.56
2023-03-05T20:03:55.538Z,101253.66
2023-03-05T20:06:22.513Z,101244.34
2023-03-05T20:08:51.589Z,101245.22
2023-03-05T20:11:19.072Z,101241.81
2023-03-05T20:13:46.022Z,101240.97
2023-03-05T20:16:15.653Z,101238.44
2023-03-05T20:18:42.419Z,101236.75
2023-03-05T20:21:08.883Z,101237.59
2023-03-05T20:23:35.400Z,101235.91
2023-03-05T20:26:04.590Z,101228.28
2023-03-05T20:28:31.416Z,101234.19
2023-03-05T20:31:00.385Z,101230.84
2023-03-05T20:33:28.382Z,101231.69
2023-03-05T20:35:56.315Z,101229.97
2023-03-05T20:38:29.403Z,101227.44
2023-03-05T20:41:07.812Z,101227.44
2023-03-05T20:43:37.476Z,101226.59
2023-03-05T20:46:04.842Z,101221.50
2023-03-05T20:48:33.443Z,101219.81
2023-03-05T20:51:11.248Z,101213.91
2023-03-05T20:53:37.713Z,101216.44
2023-03-05T20:56:04.323Z,101215.59
2023-03-05T20:58:30.760Z,101207.97
2023-03-05T21:00:57.230Z,101213.06
2023-03-05T21:03:25.569Z,101196.97
2023-03-05T21:05:55.752Z,101208.81
2023-03-05T21:08:22.344Z,101208.81
2023-03-05T21:10:48.889Z,101199.50
2023-03-05T21:13:15.321Z,101202.06
2023-03-05T21:15:41.857Z,101197.81
2023-03-05T21:18:08.243Z,101194.44
2023-03-05T21:20:34.628Z,101188.50
2023-03-05T21:23:01.061Z,101191.03
2023-03-05T21:25:29.669Z,101183.41
2023-03-05T21:28:06.855Z,101183.44
2023-03-05T21:30:39.835Z,101174.97
2023-03-05T21:33:09.903Z,101176.66
2023-03-05T21:35:37.421Z,101169.88
2023-03-05T21:38:05.258Z,101165.66
2023-03-05T21:40:33.040Z,101160.56
2023-03-05T21:42:59.691Z,101164.81
2023-03-05T21:45:28.050Z,101161.41
2023-03-05T21:47:55.979Z,101169.03
2023-03-05T21:50:24.562Z,101167.38
2023-03-05T21:52:51.609Z,101166.50
2023-03-05T21:55:22.590Z,101149.56
2023-03-05T21:57:48.963Z,101157.19
2023-03-05T22:00:18.075Z,101152.97
2023-03-05T22:02:45.789Z,101154.66
2023-03-05T22:05:13.522Z,101145.34
2023-03-05T22:07:40.351Z,101148.72
2023-03-05T22:10:07.536Z,101145.38
2023-03-05T22:13:00.041Z,101143.66
2023-03-05T22:15:26.638Z,101139.44
2023-03-05T22:17:53.233Z,101130.13
2023-03-05T22:20:19.817Z,101132.66
2023-03-05T22:22:46.210Z,101125.03
2023-03-05T22:25:15.044Z,101119.97
2023-03-05T22:27:42.384Z,101116.59
2023-03-05T22:30:11.027Z,101116.59
2023-03-05T22:32:38.149Z,101108.13
2023-03-05T22:35:06.442Z,101112.34
2023-03-05T22:37:33.111Z,101106.44
2023-03-05T22:39:59.665Z,101095.44
2023-03-05T22:42:26.134Z,101091.19
2023-03-05T22:44:58.834Z,101087.00
2023-03-05T22:47:26.975Z,101085.28
2023-03-05T22:49:54.933Z,101082.75
2023-03-05T22:52:21.345Z,101083.59
2023-03-05T22:54:47.785Z,101083.59
2023-03-05T22:57:14.311Z,101078.50
2023-03-05T22:59:40.706Z,101070.03
2023-03-05T23:02:07.237Z,101072.56
2023-03-05T23:04:51.526Z,101067.50
2023-03-05T23:07:23.938Z,101079.34
2023-03-05T23:09:52.680Z,101069.19
2023-03-05T23:12:19.262Z,101068.34
2023-03-05T23:14:45.760Z,101075.94
2023-03-05T23:17:12.472Z,101064.97
2023-03-05T23:19:39.950Z,101060.72
2023-03-05T23:22:08.103Z,101062.41
2023-03-05T23:24:34.741Z,101054.78
2023-03-05T23:27:05.158Z,101055.63
2023-03-05T23:29:38.422Z,101058.16
2023-03-05T23:32:05.327Z,101054.78
2023-03-05T23:34:31.750Z,101046.34
2023-03-05T23:37:00.465Z,101041.22
2023-03-05T23:39:26.920Z,101037.88
2023-03-05T23:41:53.318Z,101040.41
2023-03-05T23:44:19.739Z,101033.63
2023-03-05T23:46:46.169Z,101028.53
2023-03-05T23:49:12.615Z,101035.31
2023-03-05T23:51:39.038Z,101031.91
2023-03-05T23:54:05.747Z,101033.59
2023-03-05T23:56:32.405Z,101033.59
2023-03-05T23:59:00.598Z,101026.81
